Latest Weather Observations for Avalon

IDV60901

Issued at 5:21 pm EST Wednesday 1 June 2016 (issued every 10 minutes, with the page automatically refreshed every 10 minutes)

About weather observations | Map of Melbourne area stations | Latest observations for Melbourne area | Other Formats
Station Details ID: 087113 Name: AVALON AIRPORT Lat: -38.03 Lon: 144.48 Height: 10.6 m
Data from the previous 72 hours. | See also: Recent months at Avalon
Date/Time
EST
Tmp

°C
App
Tmp
°C
Dew
Point
°C
Rel
Hum
%
Delta-T

°C
Wind Press
QNH
hPa
Press
MSL
hPa
Rain
since
9 am
mm
Dir
 
Spd
km/h
Gust
km/h
Spd
kts
Gust
kts
01/05:00pm 11.2 8.7 8.4 83 1.4 E 11 13 6 7 1026.8 1026.8 0.0
01/04:30pm 12.0 9.2 8.7 80 1.6 ESE 13 17 7 9 1026.6 1026.6 0.0
01/04:00pm 12.7 9.4 8.0 73 2.3 ESE 15 17 8 9 1026.7 1026.7 0.0
01/03:30pm 13.5 10.6 8.1 70 2.7 E 13 15 7 8 1026.7 1026.7 0.0
01/03:00pm 13.6 10.9 9.1 74 2.3 ESE 13 15 7 8 1026.8 1026.8 0.0
01/02:30pm 13.5 11.3 9.2 75 2.2 ESE 11 15 6 8 1027.0 1027.0 0.0
01/02:00pm 13.6 12.0 8.9 73 2.4 ESE 7 13 4 7 1027.1 1027.1 0.0
01/01:30pm 13.4 12.0 8.9 74 2.3 E 6 7 3 4 1027.3 1027.3 0.0
01/01:00pm 12.6 10.7 8.9 78 1.8 ESE 9 13 5 7 1027.7 1027.7 0.0
01/12:30pm 12.9 12.5 9.7 81 1.6 ESE 2 9 1 5 1028.0 1028.0 0.0
01/12:00pm 12.5 11.9 12.3 99 0.1 E 7 9 4 5 1028.5 1028.5 0.0
01/11:30am 11.2 10.4 11.2 100 0.0 ESE 6 9 3 5 1028.8 1028.8 0.0
01/11:00am 9.1 8.5 9.1 100 0.0 SSW 2 7 1 4 1029.3 1029.3 0.0
01/10:30am 8.1 7.7 8.1 100 0.0 CALM 0 0 0 0 1029.5 1029.5 0.0
01/10:27am 8.2 7.8 8.2 100 0.0 CALM 0 0 0 0 1029.5 1029.5 0.0
01/10:22am 7.9 7.4 7.9 100 0.0 CALM 0 4 0 2 1029.5 1029.5 0.0
01/10:00am 6.9 5.0 6.9 100 0.0 WSW 6 7 3 4 1029.4 1029.4 0.0
01/09:30am 6.2 5.3 6.2 100 0.0 CALM 0 0 0 0 1029.4 1029.4 0.0
01/09:00am 5.0 3.9 5.0 100 0.0 CALM 0 0 0 0 1029.3 1029.3 0.2
01/08:30am 3.9 2.2 3.9 100 0.0 NW 2 7 1 4 1029.1 1029.1 0.2
01/08:00am 3.6 0.9 3.6 100 0.0 NW 7 7 4 4 1029.0 1029.0 0.2
01/07:30am 3.1 0.3 3.1 100 0.0 NNW 7 9 4 5 1028.8 1028.8 0.0
01/07:00am 3.4 0.6 3.4 100 0.0 NW 7 9 4 5 1028.6 1028.6 0.0
01/06:30am 3.1 0.3 3.1 100 0.0 NW 7 9 4 5 1028.4 1028.4 0.0
01/06:00am 2.9 0.2 2.9 100 0.0 WNW 6 7 3 4 1028.1 1028.1 0.0
01/05:30am 2.8 -0.1 2.8 100 0.0 NW 7 9 4 5 1027.9 1027.9 0.0
01/05:00am 2.6 -0.7 2.5 99 0.0 NW 9 9 5 5 1027.8 1027.8 0.0
01/04:30am 2.8 -0.5 2.7 99 0.0 NW 9 11 5 6 1027.8 1027.8 0.0
01/04:00am 2.6 -0.7 2.5 99 0.0 NW 9 11 5 6 1027.9 1027.9 0.0
01/03:57am 2.5 -0.8 2.4 99 0.0 NW 9 11 5 6 1027.9 1027.9 0.0
01/03:43am 2.5 -0.8 2.4 99 0.0 NW 9 11 5 6 1027.9 1027.9 0.0
01/03:30am 2.7 -0.6 2.6 99 0.0 NW 9 11 5 6 1028.0 1028.0 0.0
01/03:00am 3.6 0.9 3.5 99 0.0 NW 7 9 4 5 1028.0 1028.0 0.0
01/02:54am 3.4 0.6 3.3 99 0.0 NW 7 9 4 5 1028.0 1028.0 0.0
01/02:31am 3.2 0.0 3.1 99 0.0 NW 9 11 5 6 1028.0 1028.0 0.0
01/02:30am 3.2 0.0 3.1 99 0.0 NW 9 11 5 6 1028.0 1028.0 0.0
01/02:15am 2.8 -0.8 2.7 99 0.0 NNW 11 13 6 7 1028.1 1028.1 0.0
01/02:08am 3.1 -0.5 3.0 99 0.0 NNW 11 13 6 7 1028.2 1028.2 0.0
01/02:00am 3.4 0.2 3.3 99 0.0 NNW 9 11 5 6 1028.1 1028.1 0.0
01/01:30am 3.8 0.7 3.7 99 0.0 NW 9 11 5 6 1028.2 1028.2 0.0
01/01:00am 4.2 1.6 4.1 99 0.0 WNW 7 9 4 5 1028.3 1028.3 0.0
01/12:56am 4.1 1.5 4.0 99 0.0 WNW 7 9 4 5 1028.3 1028.3 0.0
01/12:54am 4.1 1.5 4.0 99 0.0 WNW 7 9 4 5 1028.3 1028.3 0.0
01/12:36am 3.9 0.8 3.8 99 0.0 NW 9 9 5 5 1028.4 1028.4 0.0
01/12:30am 3.9 0.8 3.8 99 0.0 NW 9 9 5 5 1028.4 1028.4 0.0
01/12:00am 4.2 1.2 4.1 99 0.0 NW 9 11 5 6 1028.6 1028.6 0.0
 
Date/Time
EST
Tmp

°C
App
Tmp
°C
Dew
Point
°C
Rel
Hum
%
Delta-T

°C
Wind Press
QNH
hPa
Press
MSL
hPa
Rain
since
9 am
mm
Dir
 
Spd
km/h
Gust
km/h
Spd
kts
Gust
kts
31/11:30pm 4.1 1.5 4.0 99 0.0 NW 7 11 4 6 1028.8 1028.8 0.0
31/11:15pm 4.2 1.6 4.1 99 0.0 NW 7 9 4 5 1028.8 1028.8 0.0
31/11:04pm 4.4 2.0 4.3 99 0.0 NW 6 7 3 4 1028.8 1028.8 0.0
31/11:00pm 4.1 1.5 4.0 99 0.0 NW 7 7 4 4 1028.7 1028.7 0.0
31/10:30pm 4.7 2.2 4.6 99 0.0 NW 7 9 4 5 1028.8 1028.8 0.0
31/10:20pm 5.5 3.1 5.4 99 0.0 NW 7 7 4 4 1028.9 1028.9 0.0
31/10:00pm 6.2 4.2 6.1 99 0.0 N 6 7 3 4 1028.9 1028.9 0.0
31/09:30pm 5.4 3.2 5.3 99 0.0 WNW 6 7 3 4 1028.9 1028.9 0.0
31/09:16pm 6.0 3.9 5.9 99 0.0 WNW 6 6 3 3 1028.9 1028.9 0.0
31/09:00pm 6.5 4.5 6.4 99 0.0 WNW 6 7 3 4 1028.8 1028.8 0.0
31/08:30pm 7.4 5.6 7.3 99 0.0 NW 6 7 3 4 1028.7 1028.7 0.0
31/08:00pm 6.4 5.4 5.8 96 0.3 CALM 0 0 0 0 1028.7 1028.7 0.0
31/07:30pm 8.1 7.5 7.3 95 0.4 CALM 0 0 0 0 1028.5 1028.5 0.0
31/07:00pm 8.3 6.3 7.1 92 0.6 N 7 7 4 4 1028.5 1028.5 0.0
31/06:30pm 9.8 8.0 7.9 88 0.9 ENE 7 9 4 5 1028.4 1028.4 0.0
31/06:00pm 9.2 6.5 7.2 87 0.9 ESE 11 13 6 7 1028.1 1028.1 0.0
31/05:30pm 9.7 6.7 7.6 87 1.0 ESE 13 15 7 8 1027.8 1027.8 0.0
31/05:00pm 11.5 8.0 8.9 84 1.3 ESE 17 20 9 11 1027.6 1027.6 0.0
31/04:30pm 12.8 9.1 9.3 79 1.8 ESE 19 22 10 12 1027.5 1027.5 0.0
31/04:00pm 13.6 9.8 9.1 74 2.3 ESE 19 22 10 12 1027.4 1027.4 0.0
31/03:30pm 13.8 9.7 8.8 72 2.5 ESE 20 24 11 13 1027.4 1027.4 0.0
31/03:00pm 13.4 9.4 8.3 71 2.5 ESE 19 22 10 12 1027.4 1027.4 0.0
31/02:30pm 13.2 9.3 8.7 74 2.3 ESE 19 24 10 13 1027.6 1027.6 0.0
31/02:00pm 13.1 9.1 8.4 73 2.3 ESE 19 22 10 12 1028.0 1028.0 0.0
31/01:30pm 13.0 9.3 7.9 71 2.5 E 17 20 9 11 1028.2 1028.2 0.0
31/01:00pm 12.8 9.0 7.7 71 2.5 ESE 17 20 9 11 1028.5 1028.5 0.0
31/12:30pm 13.0 10.2 7.0 67 2.9 E 11 15 6 8 1028.9 1028.9 0.0
31/12:00pm 12.8 10.4 7.0 68 2.8 ENE 9 17 5 9 1029.2 1029.2 0.0
31/11:30am 11.8 9.4 6.9 72 2.3 ENE 9 15 5 8 1029.9 1029.9 0.0
31/11:00am 11.1 8.6 6.6 74 2.1 NE 9 13 5 7 1030.3 1030.3 0.0
31/10:30am 9.1 8.2 6.0 81 1.4 CALM 0 0 0 0 1030.6 1030.6 0.0
31/10:00am 8.0 6.8 6.5 90 0.7 NE 2 7 1 4 1030.7 1030.7 0.0
31/09:30am 5.9 4.9 5.8 99 0.0 CALM 0 0 0 0 1030.6 1030.6 0.0
31/09:00am 3.7 1.2 3.6 99 0.0 NNW 6 7 3 4 1030.8 1030.8 0.0
31/08:30am 1.8 -1.6 1.7 99 0.0 NNW 9 11 5 6 1030.6 1030.6 0.0
31/08:00am 0.7 -1.2 0.6 99 0.0 CALM 0 0 0 0 1030.2 1030.2 0.0
31/07:30am 0.4 -1.5 0.3 99 0.0 CALM 0 0 0 0 1030.0 1030.0 0.0
31/07:00am 0.3 -1.7 0.2 99 0.0 CALM 0 0 0 0 1029.6 1029.6 0.0
31/06:30am 0.6 -1.3 0.5 99 0.0 CALM 0 0 0 0 1029.4 1029.4 0.0
31/06:00am 0.6 -2.4 0.5 99 0.0 NNE 6 7 3 4 1029.1 1029.1 0.0
31/05:30am 1.5 -0.3 1.4 99 0.0 CALM 0 0 0 0 1028.8 1028.8 0.0
31/05:00am 1.5 -0.3 1.4 99 0.0 CALM 0 0 0 0 1028.7 1028.7 0.0
31/04:30am 2.2 0.5 2.1 99 0.0 CALM 0 0 0 0 1028.6 1028.6 0.0
31/04:00am 1.6 -0.2 1.5 99 0.0 CALM 0 0 0 0 1028.5 1028.5 0.0
31/03:30am 2.0 -0.1 1.9 99 0.0 NNW 2 6 1 3 1028.6 1028.6 0.0
31/03:00am 2.0 -1.0 1.9 99 0.0 N 7 7 4 4 1028.6 1028.6 0.0
31/02:30am 2.4 -0.9 2.3 99 0.0 NNW 9 9 5 5 1028.4 1028.4 0.0
31/02:00am 2.3 -1.8 2.2 99 0.0 NNW 13 13 7 7 1028.4 1028.4 0.0
31/01:30am 3.2 0.0 3.1 99 0.0 NW 9 11 5 6 1028.3 1028.3 0.0
31/01:00am 2.7 -1.0 2.3 97 0.2 WNW 11 13 6 7 1028.4 1028.4 0.0
31/12:30am 2.9 -0.4 2.3 96 0.2 NW 9 11 5 6 1028.5 1028.5 0.0
31/12:00am 3.8 0.6 2.9 94 0.4 NNW 9 11 5 6 1028.5 1028.5 0.0
 
Date/Time
EST
Tmp

°C
App
Tmp
°C
Dew
Point
°C
Rel
Hum
%
Delta-T

°C
Wind Press
QNH
hPa
Press
MSL
hPa
Rain
since
9 am
mm
Dir
 
Spd
km/h
Gust
km/h
Spd
kts
Gust
kts
30/11:30pm 4.1 0.9 2.9 92 0.5 WNW 9 11 5 6 1028.5 1028.5 0.0
30/11:00pm 5.2 2.2 4.0 92 0.5 NW 9 9 5 5 1028.4 1028.4 0.0
30/10:30pm 5.3 2.4 4.4 94 0.4 WNW 9 9 5 5 1028.4 1028.4 0.0
30/10:00pm 5.2 2.2 4.3 94 0.4 W 9 9 5 5 1028.3 1028.3 0.0
30/09:30pm 5.0 2.4 4.1 94 0.4 NW 7 9 4 5 1028.3 1028.3 0.0
30/09:00pm 4.8 1.7 3.6 92 0.5 NW 9 9 5 5 1028.1 1028.1 0.0
30/08:30pm 5.3 2.6 3.8 90 0.6 NW 7 11 4 6 1028.0 1028.0 0.0
30/08:00pm 6.2 5.0 4.8 91 0.6 CALM 0 0 0 0 1027.7 1027.7 0.0
30/07:30pm 6.3 5.0 4.1 86 0.9 CALM 0 0 0 0 1027.6 1027.6 0.0
30/07:00pm 8.0 5.6 5.3 83 1.2 ESE 7 9 4 5 1027.3 1027.3 0.0
30/06:30pm 8.2 5.8 5.1 81 1.4 E 7 9 4 5 1027.1 1027.1 0.0
30/06:00pm 8.6 5.9 5.5 81 1.4 E 9 11 5 6 1026.8 1026.8 0.0
30/05:30pm 8.8 5.6 5.2 78 1.6 ESE 11 11 6 6 1026.5 1026.5 0.0
30/05:00pm 9.9 6.8 5.5 74 2.0 ESE 11 11 6 6 1026.3 1026.3 0.0
30/04:30pm 11.6 8.6 5.9 68 2.7 ESE 11 15 6 8 1026.1 1026.1 0.0
30/04:00pm 12.5 9.0 5.4 62 3.3 ESE 13 15 7 8 1025.9 1025.9 0.0
30/03:30pm 12.9 9.3 5.1 59 3.6 ESE 13 17 7 9 1025.9 1025.9 0.0
30/03:00pm 13.0 9.0 4.9 58 3.7 ESE 15 20 8 11 1026.0 1026.0 0.0
30/02:30pm 13.2 8.8 4.9 57 3.8 ESE 17 24 9 13 1025.8 1025.8 0.0
30/02:00pm 13.2 8.7 4.4 55 4.0 ESE 17 20 9 11 1026.0 1026.0 0.0
30/01:30pm 13.3 8.7 3.7 52 4.3 E 17 24 9 13 1026.1 1026.1 0.0
30/01:00pm 13.4 8.9 4.3 54 4.1 ESE 17 22 9 12 1026.2 1026.2 0.0
30/12:30pm 13.3 8.6 3.4 51 4.4 ENE 17 20 9 11 1026.3 1026.3 0.0
30/12:00pm 13.4 8.9 4.0 53 4.2 ENE 17 20 9 11 1026.6 1026.6 0.0
30/11:30am 13.1 9.4 4.3 55 4.0 ENE 13 17 7 9 1026.8 1026.8 0.0
30/11:00am 12.4 9.7 5.6 63 3.1 NNE 9 15 5 8 1027.2 1027.2 0.0
30/10:30am 11.5 10.5 5.6 67 2.7 CALM 0 9 0 5 1027.5 1027.5 0.0
30/10:00am 9.7 8.4 5.9 77 1.7 NE 2 7 1 4 1027.4 1027.4 0.0
30/09:30am 7.9 5.7 5.2 83 1.2 NNE 6 7 3 4 1027.2 1027.2 0.0
30/09:00am 7.0 5.4 4.5 84 1.1 NNE 2 7 1 4 1027.1 1027.1 0.0
30/08:30am 6.5 3.6 4.5 87 0.9 N 9 11 5 6 1027.0 1027.0 0.0
30/08:00am 6.3 3.4 4.8 90 0.6 N 9 11 5 6 1026.6 1026.6 0.0
30/07:30am 6.2 5.0 4.5 89 0.7 CALM 0 0 0 0 1026.3 1026.3 0.0
30/07:00am 6.1 4.5 4.4 89 0.7 E 2 6 1 3 1026.1 1026.1 0.0
30/06:30am 5.8 3.7 3.8 87 0.8 E 4 11 2 6 1025.7 1025.7 0.0
30/06:00am 5.9 3.7 3.6 85 1.0 WSW 4 9 2 5 1025.3 1025.3 0.0
30/05:30am 5.9 2.0 3.4 84 1.0 NW 13 15 7 8 1024.9 1024.9 0.0
30/05:00am 5.8 2.7 3.5 85 1.0 W 9 13 5 7 1024.8 1024.8 0.0
30/04:30am 5.8 3.1 3.5 85 1.0 WSW 7 11 4 6 1024.5 1024.5 0.0
30/04:00am 6.0 3.2 3.2 82 1.2 W 7 9 4 5 1024.4 1024.4 0.0
30/03:30am 6.4 3.3 3.4 81 1.3 NW 9 13 5 7 1024.3 1024.3 0.0
30/03:00am 6.5 3.4 3.5 81 1.3 W 9 11 5 6 1024.4 1024.4 0.0
30/02:30am 6.6 3.5 3.6 81 1.3 W 9 13 5 7 1024.2 1024.2 0.0
30/02:00am 6.0 2.9 3.7 85 1.0 W 9 11 5 6 1024.1 1024.1 0.0
30/01:30am 5.8 2.7 3.6 86 0.9 W 9 11 5 6 1023.9 1023.9 0.0
30/01:00am 5.4 2.2 3.1 85 0.9 WNW 9 9 5 5 1023.7 1023.7 0.0
30/12:30am 5.2 1.6 3.2 87 0.8 NW 11 13 6 7 1023.8 1023.8 0.0
30/12:00am 5.7 2.1 3.0 83 1.1 NW 11 13 6 7 1023.7 1023.7 0.0
 
Date/Time
EST
Tmp

°C
App
Tmp
°C
Dew
Point
°C
Rel
Hum
%
Delta-T

°C
Wind Press
QNH
hPa
Press
MSL
hPa
Rain
since
9 am
mm
Dir
 
Spd
km/h
Gust
km/h
Spd
kts
Gust
kts
29/11:30pm 7.6 4.5 3.6 76 1.7 NW 9 9 5 5 1023.6 1023.6 0.0
29/11:00pm 8.0 4.9 3.5 73 1.9 NW 9 11 5 6 1023.5 1023.5 0.0
29/10:30pm 8.8 6.1 3.6 70 2.2 NW 7 9 4 5 1023.5 1023.5 0.0
29/10:00pm 9.2 6.6 4.2 71 2.2 NNW 7 13 4 7 1023.4 1023.4 0.0
29/09:30pm 9.7 7.3 4.1 68 2.5 NW 6 13 3 7 1023.2 1023.2 0.0
29/09:00pm 10.3 7.9 4.5 67 2.6 WNW 6 9 3 5 1023.2 1023.2 0.0
29/08:30pm 10.1 7.8 4.9 70 2.3 NNW 6 7 3 4 1023.0 1023.0 0.0
29/08:00pm 10.4 7.6 5.2 70 2.4 NW 9 11 5 6 1022.9 1022.9 0.0
29/07:30pm 10.7 7.9 5.0 68 2.6 W 9 11 5 6 1022.5 1022.5 0.0
29/07:00pm 11.1 8.3 5.2 67 2.7 W 9 11 5 6 1022.2 1022.2 0.0
29/06:30pm 11.0 8.7 5.5 69 2.5 NW 7 9 4 5 1022.0 1022.0 0.0
29/06:00pm 11.5 9.0 4.7 63 3.1 NNW 7 11 4 6 1021.7 1021.7 0.0
29/05:30pm 11.7 8.8 4.9 63 3.1 NW 9 11 5 6 1021.4 1021.4 0.0

Latest Capital City Observations: Canberra | Sydney | Melbourne | Brisbane | Adelaide | Perth | Hobart | Darwin

Other Formats:

Comma delimited format used in spreadsheet applications
http://www.bom.gov.au/fwo/IDV60901/IDV60901.94854.axf

JavaScript Object Notation format (JSON) in row-major order
http://www.bom.gov.au/fwo/IDV60901/IDV60901.94854.json